createdAt,value
2022-09-07T00:28:21.851Z,9.00
2022-09-07T00:39:46.131Z,11.00
2022-09-07T00:51:13.688Z,12.60
2022-09-07T01:02:30.121Z,9.80
2022-09-07T01:13:38.182Z,11.90
2022-09-07T01:36:44.274Z,11.00
2022-09-07T01:48:09.583Z,13.50
2022-09-07T01:59:40.788Z,10.00
2022-09-07T02:11:01.593Z,15.20
2022-09-07T02:56:07.818Z,13.20
2022-09-07T03:07:36.093Z,10.20
2022-09-07T03:19:01.081Z,12.40
2022-09-07T03:30:25.142Z,13.50
2022-09-07T04:16:04.852Z,12.30
2022-09-07T06:19:57.337Z,13.00
2022-09-07T06:31:12.826Z,13.00
2022-09-07T06:42:27.925Z,16.60
2022-09-07T06:53:43.141Z,18.60
2022-09-07T07:04:51.218Z,17.80
2022-09-07T07:16:06.866Z,7.10
2022-09-07T07:26:50.164Z,9.10
2022-09-07T07:37:30.258Z,7.10
2022-09-07T07:48:11.541Z,6.50
2022-09-07T07:59:18.373Z,8.30
2022-09-07T08:10:22.007Z,3.20
2022-09-07T08:21:08.711Z,4.60
2022-09-07T08:32:15.011Z,4.50
2022-09-07T08:43:48.986Z,4.20
2022-09-07T08:54:10.826Z,5.10
2022-09-07T09:05:16.171Z,2.10
2022-09-07T09:15:35.898Z,3.90
2022-09-07T09:26:04.693Z,2.20
2022-09-07T09:36:44.430Z,2.90
2022-09-07T10:09:23.787Z,2.40
2022-09-07T10:19:50.780Z,3.80
2022-09-07T10:29:55.231Z,2.90
2022-09-07T10:41:00.955Z,3.20
2022-09-07T10:51:59.174Z,4.10
2022-09-07T11:13:30.738Z,4.50
2022-09-07T11:24:02.021Z,1.50
2022-09-07T11:34:25.269Z,2.50
2022-09-07T11:45:06.358Z,2.40
2022-09-07T11:55:25.510Z,3.60
2022-09-07T12:06:12.001Z,4.80
2022-09-07T12:17:00.690Z,2.00
2022-09-07T12:27:25.573Z,2.40
2022-09-07T12:38:00.611Z,3.00
2022-09-07T12:48:49.001Z,3.00
2022-09-07T12:59:29.427Z,5.00
2022-09-07T13:10:12.203Z,4.00
2022-09-07T13:20:36.221Z,3.50
2022-09-07T13:31:25.976Z,3.30
2022-09-07T13:41:37.713Z,3.50
2022-09-07T13:52:27.163Z,1.30
2022-09-07T14:02:53.180Z,4.10
2022-09-07T14:13:06.997Z,6.20
2022-09-07T14:23:32.040Z,3.10
2022-09-07T14:33:37.893Z,2.60
2022-09-07T14:44:03.064Z,2.00
2022-09-07T14:54:31.497Z,2.70
2022-09-07T15:04:36.197Z,2.40
2022-09-07T15:14:45.677Z,2.70
2022-09-07T15:25:03.765Z,5.10
2022-09-07T15:35:12.603Z,3.50
2022-09-07T15:45:32.181Z,4.60
2022-09-07T15:55:37.201Z,4.10
2022-09-07T16:05:53.132Z,7.50
2022-09-07T16:16:04.763Z,6.80
2022-09-07T16:26:12.320Z,2.80
2022-09-07T16:36:38.394Z,6.80
2022-09-07T16:47:13.012Z,6.90
2022-09-07T16:57:22.766Z,6.30
2022-09-07T17:07:28.939Z,7.30
2022-09-07T17:17:47.695Z,4.30
2022-09-07T17:28:01.363Z,4.20
2022-09-07T17:49:25.241Z,5.50
2022-09-07T18:00:11.336Z,8.00
2022-09-07T18:22:26.303Z,10.20
2022-09-07T18:33:31.579Z,8.40
2022-09-07T18:45:27.097Z,9.40
2022-09-07T18:55:40.546Z,9.70
2022-09-07T19:06:36.729Z,10.40
2022-09-07T19:17:43.925Z,11.70
2022-09-07T19:28:36.647Z,9.10
2022-09-07T19:39:40.537Z,5.90
2022-09-07T19:50:30.906Z,11.50
2022-09-07T20:01:46.947Z,9.30
2022-09-07T20:12:49.031Z,8.90
2022-09-07T20:23:49.314Z,9.50
2022-09-07T20:34:46.289Z,8.50
2022-09-07T20:45:35.755Z,9.10
2022-09-07T20:56:13.347Z,8.20
2022-09-07T21:07:10.375Z,6.60
2022-09-07T21:18:14.337Z,8.90
2022-09-07T21:29:18.293Z,6.90
2022-09-07T21:40:32.485Z,6.90
2022-09-07T21:51:43.630Z,10.00
2022-09-07T22:02:46.436Z,8.30
2022-09-07T22:14:10.579Z,8.50
2022-09-07T22:25:16.139Z,8.10
2022-09-07T22:36:23.036Z,14.70
2022-09-07T22:47:48.920Z,8.70
2022-09-07T23:10:14.811Z,10.10
2022-09-07T23:21:33.598Z,16.50
2022-09-07T23:32:47.550Z,11.60
